CST,Max TemperatureF,Mean TemperatureF,Min TemperatureF,Max Dew PointF,MeanDew PointF,Min DewpointF,Max Humidity, Mean Humidity, Min Humidity, Max Sea Level PressureIn, Mean Sea Level PressureIn, Min Sea Level PressureIn, Max VisibilityMiles, Mean VisibilityMiles, Min VisibilityMiles, Max Wind SpeedMPH, Mean Wind SpeedMPH, Max Gust SpeedMPH,PrecipitationIn, CloudCover, Events, WindDirDegrees
2013-9-1,83,72,62,68,64,61,100,84,48,30.05,29.98,29.82,12,8,6,14,6,,0.59,6,Rain-Thunderstorm,95
2013-9-2,77,70,62,70,65,61,100,83,57,30.11,30.01,29.85,12,7,2,9,4,,0.00,6,Fog-Rain-Thunderstorm,164
2013-9-3,83,74,64,68,65,61,100,82,54,30.05,29.98,29.81,12,7,0,13,6,,0.24,5,Fog-Rain-Thunderstorm,64
2013-9-4,82,72,62,70,65,60,100,80,46,30.06,29.97,29.83,12,8,6,17,7,,0.00,5,Rain,61
2013-9-5,80,71,62,70,65,60,100,84,57,30.08,29.99,29.81,12,6,1,13,6,,2.17,6,Fog-Rain-Thunderstorm,283
2013-9-6,82,74,64,70,66,62,100,87,46,30.07,29.99,29.84,12,6,0,13,5,,0.24,6,Fog-Rain-Thunderstorm,99
2013-9-7,78,70,63,68,65,63,100,85,53,30.06,29.99,29.81,12,7,2,13,4,,0.00,5,Fog-Rain,184
2013-9-8,81,72,62,70,65,61,94,82,55,30.05,29.97,29.79,12,8,6,16,6,,0.00,5,,209
2013-9-9,82,72,63,70,65,50,100,82,40,30.05,29.99,29.83,12,6,1,17,6,,0.67,6,Fog-Rain-Thunderstorm,310
2013-9-10,86,74,63,68,66,62,100,83,48,30.07,29.98,29.81,12,6,1,16,5,,0.12,6,Fog-Rain-Thunderstorm,260
2013-9-11,78,72,66,68,66,64,100,91,63,30.07,29.99,29.86,12,6,1,9,4,,0.55,6,Fog-Rain,261
2013-9-12,82,74,65,68,65,46,100,82,49,30.04,29.95,29.78,12,7,1,12,4,,0.00,6,Fog-Rain,248
2013-9-13,80,72,64,70,67,63,100,88,59,29.99,29.90,29.74,12,6,0,13,4,,0.71,5,Rain-Thunderstorm,266
2013-9-14,82,74,65,70,67,64,100,86,62,29.98,29.90,29.75,12,7,2,16,5,,0.55,6,Rain-Hail-Thunderstorm,81
2013-9-15,80,72,64,70,67,63,100,84,46,30.03,29.93,29.74,12,6,0,12,5,,0.02,6,Fog-Rain-Thunderstorm,298
2013-9-16,83,74,66,72,67,63,100,84,52,30.02,29.93,29.76,12,6,1,13,5,,0.75,6,Fog-Rain-Thunderstorm,254
2013-9-17,83,73,63,70,65,59,100,84,52,30.02,29.95,29.82,12,6,0,12,4,,0.08,6,Fog-Rain-Thunderstorm,199
2013-9-18,82,74,66,70,67,66,100,89,51,30.06,29.94,29.77,12,4,1,13,4,,0.71,6,Fog-Rain-Thunderstorm,246
2013-9-19,79,72,66,70,66,64,100,84,56,30.09,29.98,29.82,12,8,5,13,6,,0.00,6,Rain,267
2013-9-20,83,74,66,71,68,64,100,86,54,30.05,29.98,29.79,12,6,0,13,4,,0.08,6,Fog-Rain-Thunderstorm,259
2013-9-21,82,75,68,72,69,66,100,87,51,30.03,29.94,29.78,12,6,0,12,4,,0.04,6,Fog-Rain,229
2013-9-22,74,70,66,70,67,64,100,96,77,30.03,29.94,29.75,12,3,0,13,4,,0.94,7,Fog-Rain,245
2013-9-23,82,73,64,70,67,63,100,81,42,30.03,29.96,29.76,12,7,1,12,5,,0.00,6,Fog,228
2013-9-24,86,76,67,72,67,36,100,76,27,30.02,29.93,29.75,12,6,1,18,6,,0.00,5,Fog-Rain-Thunderstorm,271
2013-9-25,82,74,66,70,65,57,100,76,47,30.02,29.92,29.75,12,7,5,16,5,30,0.00,6,Fog-Rain,54
2013-9-26,81,72,64,70,65,61,94,79,54,30.02,29.93,29.77,12,7,2,14,5,,0.43,6,Rain-Thunderstorm,87
2013-9-27,82,74,65,70,65,59,100,76,44,30.05,29.96,29.79,12,7,6,9,4,,0.03,5,Fog-Rain,185
2013-9-28,79,72,65,69,66,60,100,83,64,30.11,30.00,29.82,12,6,1,10,5,,0.00,6,Fog-Rain,266
2013-9-29,81,74,66,70,67,63,100,87,56,30.08,29.99,29.81,12,6,0,16,6,,0.04,6,Fog-Rain-Thunderstorm,228
2013-9-30,82,74,65,68,66,62,100,85,48,30.04,29.98,29.80,12,6,0,13,5,,1.50,6,Fog-Rain-Thunderstorm,51